Time,TemperatureF,DewpointF,PressureIn,WindDirection,WindDirectionDegrees,WindSpeedMPH,WindSpeedGustMPH,Humidity,HourlyPrecipIn,Conditions,Clouds,dailyrainin,SoftwareType,DateUTC
2013-04-23 00:01:00,52.9,18.8,29.21,ESE,114,2.4,4.9,26,0.00,,,0.00,WUHU216WMR100,2013-04-23 04:01:00,
2013-04-23 00:06:00,52.7,18.6,29.21,SE,129,3.5,5.4,26,0.00,,,0.00,WUHU216WMR100,2013-04-23 04:06:00,
2013-04-23 00:11:00,52.5,18.4,29.21,SE,135,2.7,5.4,26,0.00,,,0.00,WUHU216WMR100,2013-04-23 04:11:00,
2013-04-23 00:16:00,52.2,18.2,29.21,ENE,59,2.6,5.6,26,0.00,,,0.00,WUHU216WMR100,2013-04-23 04:16:00,
2013-04-23 00:21:00,52.0,18.0,29.21,South,180,2.5,5.6,26,0.00,,,0.00,WUHU216WMR100,2013-04-23 04:21:00,
2013-04-23 00:26:00,51.6,17.6,29.21,ESE,115,1.5,3.4,26,0.00,,,0.00,WUHU216WMR100,2013-04-23 04:26:00,
2013-04-23 00:32:00,51.4,17.5,29.21,SE,139,1.4,2.5,26,0.00,,,0.00,WUHU216WMR100,2013-04-23 04:32:00,
2013-04-23 00:37:00,51.1,17.2,29.21,ENE,73,1.8,3.1,26,0.00,,,0.00,WUHU216WMR100,2013-04-23 04:37:00,
2013-04-23 00:42:00,50.9,17.0,29.21,ENE,67,2.2,3.1,26,0.00,,,0.00,WUHU216WMR100,2013-04-23 04:42:00,
2013-04-23 00:47:00,50.7,16.9,29.21,ESE,112,1.6,3.4,26,0.00,,,0.00,WUHU216WMR100,2013-04-23 04:47:00,
2013-04-23 00:52:00,50.7,16.9,29.21,ESE,112,1.2,3.4,26,0.00,,,0.00,WUHU216WMR100,2013-04-23 04:52:00,
2013-04-23 00:57:00,50.5,16.7,29.21,ESE,112,2.5,3.1,26,0.00,,,0.00,WUHU216WMR100,2013-04-23 04:57:00,
2013-04-23 01:02:00,50.4,16.6,29.21,SE,140,2.0,3.1,26,0.00,,,0.00,WUHU216WMR100,2013-04-23 05:02:00,
2013-04-23 01:07:00,50.4,17.5,29.21,ESE,112,2.2,4.7,27,0.00,,,0.00,WUHU216WMR100,2013-04-23 05:07:00,
2013-04-23 01:12:00,50.2,17.3,29.21,ESE,112,2.5,4.7,27,0.00,,,0.00,WUHU216WMR100,2013-04-23 05:12:00,
2013-04-23 01:17:00,49.8,16.9,29.21,ESE,112,1.8,3.6,27,0.00,,,0.00,WUHU216WMR100,2013-04-23 05:17:00,
2013-04-23 01:22:00,49.6,16.8,29.21,East,90,2.2,3.4,27,0.00,,,0.00,WUHU216WMR100,2013-04-23 05:22:00,
2013-04-23 01:27:00,49.5,16.7,29.21,ESE,112,1.2,3.4,27,0.00,,,0.00,WUHU216WMR100,2013-04-23 05:27:00,
2013-04-23 01:32:00,49.3,17.3,29.21,ESE,112,3.6,6.0,28,0.00,,,0.00,WUHU216WMR100,2013-04-23 05:32:00,
2013-04-23 01:37:00,49.3,17.3,29.21,ESE,116,2.2,6.0,28,0.00,,,0.00,WUHU216WMR100,2013-04-23 05:37:00,
2013-04-23 01:42:00,49.1,17.2,29.21,SE,125,2.4,3.8,28,0.00,,,0.00,WUHU216WMR100,2013-04-23 05:42:00,
2013-04-23 01:47:00,49.1,17.2,29.21,SE,135,3.1,4.3,28,0.00,,,0.00,WUHU216WMR100,2013-04-23 05:47:00,
2013-04-23 01:52:00,49.1,18.0,29.21,ESE,112,2.2,4.3,29,0.00,,,0.00,WUHU216WMR100,2013-04-23 05:52:00,
2013-04-23 01:57:00,48.7,17.6,29.21,ESE,112,2.1,3.1,29,0.00,,,0.00,WUHU216WMR100,2013-04-23 05:57:00,
2013-04-23 02:02:00,48.6,18.3,29.21,ESE,112,2.0,3.1,30,0.00,,,0.00,WUHU216WMR100,2013-04-23 06:02:00,
2013-04-23 02:07:00,48.2,18.0,29.21,ESE,112,1.1,2.7,30,0.00,,,0.00,WUHU216WMR100,2013-04-23 06:07:00,
2013-04-23 02:12:00,48.4,18.9,29.21,ESE,115,3.0,4.9,31,0.00,,,0.00,WUHU216WMR100,2013-04-23 06:12:00,
2013-04-23 02:17:00,48.2,18.7,29.18,ESE,112,1.0,4.9,31,0.00,,,0.00,WUHU216WMR100,2013-04-23 06:17:00,
2013-04-23 02:22:00,47.8,19.8,29.18,ESE,112,2.9,4.0,33,0.00,,,0.00,WUHU216WMR100,2013-04-23 06:22:00,
2013-04-23 02:28:00,47.7,19.7,29.18,East,100,2.0,4.0,33,0.00,,,0.00,WUHU216WMR100,2013-04-23 06:28:00,
2013-04-23 02:33:00,47.5,20.3,29.18,ESE,112,2.2,4.3,34,0.00,,,0.00,WUHU216WMR100,2013-04-23 06:33:00,
2013-04-23 02:38:00,47.1,19.9,29.18,ESE,112,2.5,4.3,34,0.00,,,0.00,WUHU216WMR100,2013-04-23 06:38:00,
2013-04-23 02:43:00,47.1,20.6,29.18,ESE,112,1.5,3.6,35,0.00,,,0.00,WUHU216WMR100,2013-04-23 06:43:00,
2013-04-23 02:48:00,46.8,20.3,29.18,ESE,112,1.4,2.7,35,0.00,,,0.00,WUHU216WMR100,2013-04-23 06:48:00,
2013-04-23 02:53:00,46.6,20.8,29.18,East,90,1.6,2.5,36,0.00,,,0.00,WUHU216WMR100,2013-04-23 06:53:00,
2013-04-23 02:58:00,46.2,21.1,29.18,East,90,1.4,2.2,37,0.00,,,0.00,WUHU216WMR100,2013-04-23 06:58:00,
2013-04-23 03:03:00,45.9,20.9,29.18,East,90,1.0,2.2,37,0.00,,,0.00,WUHU216WMR100,2013-04-23 07:03:00,
2013-04-23 03:08:00,45.9,20.9,29.18,East,90,0.5,2.0,37,0.00,,,0.00,WUHU216WMR100,2013-04-23 07:08:00,
2013-04-23 03:13:00,45.5,20.5,29.18,East,90,1.3,2.0,37,0.00,,,0.00,WUHU216WMR100,2013-04-23 07:13:00,
2013-04-23 03:18:00,45.1,20.8,29.18,East,90,0.0,2.0,38,0.00,,,0.00,WUHU216WMR100,2013-04-23 07:18:00,
2013-04-23 03:23:00,44.8,20.5,29.18,East,90,0.0,1.3,38,0.00,,,0.00,WUHU216WMR100,2013-04-23 07:23:00,
2013-04-23 03:28:00,44.6,20.3,29.18,East,90,0.0,1.1,38,0.00,,,0.00,WUHU216WMR100,2013-04-23 07:28:00,
2013-04-23 03:33:00,44.2,20.0,29.21,East,90,0.0,1.3,38,0.00,,,0.00,WUHU216WMR100,2013-04-23 07:33:00,
2013-04-23 03:38:00,44.2,20.6,29.21,East,90,0.0,1.3,39,0.00,,,0.00,WUHU216WMR100,2013-04-23 07:38:00,
2013-04-23 03:43:00,44.1,20.5,29.21,East,90,1.3,2.5,39,0.00,,,0.00,WUHU216WMR100,2013-04-23 07:43:00,
2013-04-23 03:48:00,44.1,20.5,29.18,East,90,1.2,2.5,39,0.00,,,0.00,WUHU216WMR100,2013-04-23 07:48:00,
2013-04-23 03:53:00,43.7,20.7,29.18,East,90,0.5,1.6,40,0.00,,,0.00,WUHU216WMR100,2013-04-23 07:53:00,
2013-04-23 03:58:00,43.5,20.6,29.18,East,90,0.4,2.5,40,0.00,,,0.00,WUHU216WMR100,2013-04-23 07:58:00,
2013-04-23 04:03:00,43.5,20.6,29.18,East,90,0.9,2.5,40,0.00,,,0.00,WUHU216WMR100,2013-04-23 08:03:00,
2013-04-23 04:08:00,43.7,21.3,29.18,ESE,112,1.3,3.1,41,0.00,,,0.00,WUHU216WMR100,2013-04-23 08:08:00,
2013-04-23 04:13:00,43.3,21.0,29.18,ENE,67,0.0,3.1,41,0.00,,,0.00,WUHU216WMR100,2013-04-23 08:13:00,
2013-04-23 04:18:00,43.3,21.0,29.18,ENE,67,1.1,1.3,41,0.00,,,0.00,WUHU216WMR100,2013-04-23 08:18:00,
2013-04-23 04:23:00,43.0,20.7,29.18,ENE,67,0.3,1.6,41,0.00,,,0.00,WUHU216WMR100,2013-04-23 08:23:00,
2013-04-23 04:28:00,43.0,20.7,29.18,East,90,0.7,2.5,41,0.00,,,0.00,WUHU216WMR100,2013-04-23 08:28:00,
2013-04-23 04:33:00,42.8,20.5,29.18,East,90,0.0,2.5,41,0.00,,,0.00,WUHU216WMR100,2013-04-23 08:33:00,
2013-04-23 04:38:00,42.8,21.1,29.18,East,90,0.0,1.3,42,0.00,,,0.00,WUHU216WMR100,2013-04-23 08:38:00,
2013-04-23 04:43:00,42.8,21.7,29.18,East,90,1.2,2.0,43,0.00,,,0.00,WUHU216WMR100,2013-04-23 08:43:00,
2013-04-23 04:48:00,42.6,21.5,29.18,East,90,0.0,2.0,43,0.00,,,0.00,WUHU216WMR100,2013-04-23 08:48:00,
2013-04-23 04:53:00,42.4,21.9,29.18,East,90,0.0,1.3,44,0.00,,,0.00,WUHU216WMR100,2013-04-23 08:53:00,
2013-04-23 04:58:00,42.3,21.8,29.18,East,90,0.4,1.6,44,0.00,,,0.00,WUHU216WMR100,2013-04-23 08:58:00,
2013-04-23 05:04:00,42.1,21.6,29.18,East,90,0.0,1.6,44,0.00,,,0.00,WUHU216WMR100,2013-04-23 09:04:00,
2013-04-23 05:09:00,41.7,21.8,29.18,East,90,0.0,0.0,45,0.00,,,0.00,WUHU216WMR100,2013-04-23 09:09:00,
2013-04-23 05:16:00,41.2,21.9,29.18,East,90,0.0,0.0,46,0.00,,,0.00,WUHU216WMR100,2013-04-23 09:16:00,
2013-04-23 05:21:00,41.2,21.3,29.18,East,90,0.0,0.0,45,0.00,,,0.00,WUHU216WMR100,2013-04-23 09:21:00,
2013-04-23 05:26:00,41.2,21.9,29.18,East,90,1.6,2.0,46,0.00,,,0.00,WUHU216WMR100,2013-04-23 09:26:00,
2013-04-23 05:31:00,41.4,23.1,29.18,East,90,1.6,2.5,48,0.00,,,0.00,WUHU216WMR100,2013-04-23 09:31:00,
2013-04-23 05:37:00,41.0,22.7,29.18,East,90,0.0,2.5,48,0.00,,,0.00,WUHU216WMR100,2013-04-23 09:37:00,
2013-04-23 05:42:00,41.0,22.7,29.18,East,90,0.0,1.6,48,0.00,,,0.00,WUHU216WMR100,2013-04-23 09:42:00,
2013-04-23 05:48:00,40.8,22.5,29.18,East,90,0.0,1.1,48,0.00,,,0.00,WUHU216WMR100,2013-04-23 09:48:00,
2013-04-23 05:53:00,41.2,23.4,29.18,ESE,112,1.5,2.5,49,0.00,,,0.00,WUHU216WMR100,2013-04-23 09:53:00,
2013-04-23 05:58:00,41.4,24.1,29.18,ESE,112,1.4,3.8,50,0.00,,,0.00,WUHU216WMR100,2013-04-23 09:58:00,
2013-04-23 06:03:00,41.5,24.2,29.18,ESE,112,1.4,3.8,50,0.00,,,0.00,WUHU216WMR100,2013-04-23 10:03:00,
2013-04-23 06:08:00,41.7,24.4,29.18,ESE,112,1.6,2.5,50,0.00,,,0.00,WUHU216WMR100,2013-04-23 10:08:00,
2013-04-23 06:13:00,41.5,23.7,29.18,ESE,112,0.0,2.5,49,0.00,,,0.00,WUHU216WMR100,2013-04-23 10:13:00,
2013-04-23 06:19:00,41.2,23.4,29.18,ESE,112,0.0,1.1,49,0.00,,,0.00,WUHU216WMR100,2013-04-23 10:19:00,
2013-04-23 06:24:00,41.0,23.2,29.18,ESE,112,0.0,0.0,49,0.00,,,0.00,WUHU216WMR100,2013-04-23 10:24:00,
2013-04-23 06:30:00,40.8,23.5,29.18,ESE,112,0.0,0.9,50,0.00,,,0.00,WUHU216WMR100,2013-04-23 10:30:00,
2013-04-23 06:35:00,40.8,23.5,29.18,ESE,112,0.0,0.9,50,0.00,,,0.00,WUHU216WMR100,2013-04-23 10:35:00,
2013-04-23 06:42:00,40.5,23.3,29.18,ESE,112,0.0,0.0,50,0.00,,,0.00,WUHU216WMR100,2013-04-23 10:42:00,
2013-04-23 06:47:00,40.6,23.4,29.18,ESE,112,0.0,0.0,50,0.00,,,0.00,WUHU216WMR100,2013-04-23 10:47:00,
2013-04-23 06:52:00,40.8,23.5,29.18,ESE,112,0.0,0.0,50,0.00,,,0.00,WUHU216WMR100,2013-04-23 10:52:00,
2013-04-23 06:57:00,40.6,23.4,29.18,ESE,112,0.0,0.0,50,0.00,,,0.00,WUHU216WMR100,2013-04-23 10:57:00,
2013-04-23 07:02:00,40.6,23.8,29.18,ESE,112,0.0,0.0,51,0.00,,,0.00,WUHU216WMR100,2013-04-23 11:02:00,
2013-04-23 07:07:00,41.0,24.2,29.18,ESE,112,0.0,0.0,51,0.00,,,0.00,WUHU216WMR100,2013-04-23 11:07:00,
2013-04-23 07:12:00,41.7,25.3,29.18,ESE,112,1.3,2.5,52,0.00,,,0.00,WUHU216WMR100,2013-04-23 11:12:00,
2013-04-23 07:17:00,42.3,25.9,29.18,ESE,112,1.0,2.5,52,0.00,,,0.00,WUHU216WMR100,2013-04-23 11:17:00,
2013-04-23 07:22:00,42.6,26.2,29.15,ESE,112,0.0,2.5,52,0.00,,,0.00,WUHU216WMR100,2013-04-23 11:22:00,
2013-04-23 07:27:00,43.3,26.8,29.15,ESE,112,1.6,2.5,52,0.00,,,0.00,WUHU216WMR100,2013-04-23 11:27:00,
2013-04-23 07:32:00,44.2,27.7,29.15,ESE,112,1.6,2.5,52,0.00,,,0.00,WUHU216WMR100,2013-04-23 11:32:00,
2013-04-23 07:37:00,45.3,28.2,29.15,SE,135,1.1,2.5,51,0.00,,,0.00,WUHU216WMR100,2013-04-23 11:37:00,
2013-04-23 07:42:00,46.0,28.9,29.15,SE,135,1.1,2.5,51,0.00,,,0.00,WUHU216WMR100,2013-04-23 11:42:00,
2013-04-23 07:47:00,46.9,28.2,29.15,SE,134,2.3,3.6,48,0.00,,,0.00,WUHU216WMR100,2013-04-23 11:47:00,
2013-04-23 07:52:00,47.7,28.4,29.15,SSE,157,2.0,3.6,47,0.00,,,0.00,WUHU216WMR100,2013-04-23 11:52:00,
2013-04-23 07:57:00,48.2,27.7,29.15,SSE,161,1.6,3.4,45,0.00,,,0.00,WUHU216WMR100,2013-04-23 11:57:00,
2013-04-23 08:02:00,48.7,27.0,29.15,SSE,163,2.6,4.0,43,0.00,,,0.00,WUHU216WMR100,2013-04-23 12:02:00,
2013-04-23 08:07:00,49.3,27.6,29.15,ESE,122,2.6,4.0,43,0.00,,,0.00,WUHU216WMR100,2013-04-23 12:07:00,
2013-04-23 08:12:00,49.6,27.3,29.15,SSW,202,3.6,4.5,42,0.00,,,0.00,WUHU216WMR100,2013-04-23 12:12:00,
2013-04-23 08:17:00,49.8,26.9,29.15,SSE,157,3.4,5.8,41,0.00,,,0.00,WUHU216WMR100,2013-04-23 12:17:00,
2013-04-23 08:22:00,50.4,27.4,29.18,ESE,112,3.4,5.8,41,0.00,,,0.00,WUHU216WMR100,2013-04-23 12:22:00,
2013-04-23 08:27:00,50.5,26.9,29.18,SSE,157,3.2,5.8,40,0.00,,,0.00,WUHU216WMR100,2013-04-23 12:27:00,
2013-04-23 08:32:00,51.1,27.4,29.18,SSE,157,2.7,5.4,40,0.00,,,0.00,WUHU216WMR100,2013-04-23 12:32:00,
2013-04-23 08:37:00,51.4,27.1,29.15,SSE,157,2.9,5.4,39,0.00,,,0.00,WUHU216WMR100,2013-04-23 12:37:00,
2013-04-23 08:42:00,51.8,27.4,29.15,SE,133,2.6,4.0,39,0.00,,,0.00,WUHU216WMR100,2013-04-23 12:42:00,
2013-04-23 08:47:00,52.3,27.2,29.15,SSE,166,3.3,4.0,38,0.00,,,0.00,WUHU216WMR100,2013-04-23 12:47:00,
2013-04-23 08:52:00,52.7,27.6,29.18,SE,136,2.9,5.4,38,0.00,,,0.00,WUHU216WMR100,2013-04-23 12:52:00,
2013-04-23 08:57:00,53.1,27.3,29.18,SSE,153,3.0,5.4,37,0.00,,,0.00,WUHU216WMR100,2013-04-23 12:57:00,
2013-04-23 09:02:00,53.8,27.2,29.18,SSW,202,3.4,5.4,36,0.00,,,0.00,WUHU216WMR100,2013-04-23 13:02:00,
2013-04-23 09:07:00,54.5,27.9,29.18,SSW,202,4.3,5.8,36,0.00,,,0.00,WUHU216WMR100,2013-04-23 13:07:00,
2013-04-23 09:12:00,54.9,27.5,29.18,SSE,157,3.1,5.8,35,0.00,,,0.00,WUHU216WMR100,2013-04-23 13:12:00,
2013-04-23 09:17:00,55.8,28.3,29.18,ESE,112,2.7,4.3,35,0.00,,,0.00,WUHU216WMR100,2013-04-23 13:17:00,
2013-04-23 09:22:00,57.0,29.4,29.18,WSW,247,2.0,3.8,35,0.00,,,0.00,WUHU216WMR100,2013-04-23 13:22:00,
2013-04-23 09:27:00,57.4,27.5,29.18,SSE,157,3.1,5.6,32,0.00,,,0.00,WUHU216WMR100,2013-04-23 13:27:00,
2013-04-23 09:32:00,57.7,27.0,29.18,SSW,202,3.1,5.6,31,0.00,,,0.00,WUHU216WMR100,2013-04-23 13:32:00,
2013-04-23 09:37:00,57.9,25.6,29.18,SSE,157,4.0,6.0,29,0.00,,,0.00,WUHU216WMR100,2013-04-23 13:37:00,
2013-04-23 09:42:00,58.6,26.2,29.18,South,175,2.4,6.0,29,0.00,,,0.00,WUHU216WMR100,2013-04-23 13:42:00,
2013-04-23 09:47:00,58.8,26.4,29.18,SSW,208,3.1,7.6,29,0.00,,,0.00,WUHU216WMR100,2013-04-23 13:47:00,
2013-04-23 09:52:00,59.2,25.9,29.18,SSE,156,4.5,7.6,28,0.00,,,0.00,WUHU216WMR100,2013-04-23 13:52:00,
2013-04-23 09:58:00,59.5,26.2,29.18,SSE,168,3.3,6.0,28,0.00,,,0.00,WUHU216WMR100,2013-04-23 13:58:00,
2013-04-23 10:03:00,61.0,27.5,29.15,SE,135,1.7,4.9,28,0.00,,,0.00,WUHU216WMR100,2013-04-23 14:03:00,
2013-04-23 10:08:00,61.3,25.9,29.15,SSW,202,4.0,5.4,26,0.00,,,0.00,WUHU216WMR100,2013-04-23 14:08:00,
2013-04-23 10:13:00,62.6,27.1,29.15,SSE,157,3.1,6.5,26,0.00,,,0.00,WUHU216WMR100,2013-04-23 14:13:00,
2013-04-23 10:18:00,63.0,27.4,29.15,SSW,200,2.8,6.5,26,0.00,,,0.00,WUHU216WMR100,2013-04-23 14:18:00,
2013-04-23 10:23:00,62.8,27.2,29.15,SSE,148,2.7,3.8,26,0.00,,,0.00,WUHU216WMR100,2013-04-23 14:23:00,
2013-04-23 10:29:00,63.5,26.9,29.15,SSE,157,3.6,7.6,25,0.00,,,0.00,WUHU216WMR100,2013-04-23 14:29:00,
2013-04-23 10:34:00,64.4,26.7,29.15,SW,214,2.9,6.0,24,0.00,,,0.00,WUHU216WMR100,2013-04-23 14:34:00,
2013-04-23 10:39:00,64.6,26.9,29.15,South,169,3.6,6.0,24,0.00,,,0.00,WUHU216WMR100,2013-04-23 14:39:00,
2013-04-23 10:44:00,64.9,27.1,29.15,SE,144,2.9,5.6,24,0.00,,,0.00,WUHU216WMR100,2013-04-23 14:44:00,
2013-04-23 10:51:00,65.7,27.8,29.15,SSW,192,3.9,6.3,24,0.00,,,0.00,WUHU216WMR100,2013-04-23 14:51:00,
2013-04-23 10:56:00,66.0,28.0,29.15,South,190,4.6,6.3,24,0.00,,,0.00,WUHU216WMR100,2013-04-23 14:56:00,
2013-04-23 11:02:00,66.7,27.6,29.15,WSW,254,3.7,6.3,23,0.00,,,0.00,WUHU216WMR100,2013-04-23 15:02:00,
2013-04-23 11:07:00,66.9,27.8,29.15,SSE,157,5.4,6.3,23,0.00,,,0.00,WUHU216WMR100,2013-04-23 15:07:00,
2013-04-23 11:12:00,67.6,28.4,29.15,SSW,204,2.5,7.4,23,0.00,,,0.00,WUHU216WMR100,2013-04-23 15:12:00,
2013-04-23 11:17:00,68.7,29.3,29.15,WSW,247,2.2,7.4,23,0.00,,,0.00,WUHU216WMR100,2013-04-23 15:17:00,
2013-04-23 11:22:00,68.7,29.3,29.15,South,179,3.3,5.6,23,0.00,,,0.00,WUHU216WMR100,2013-04-23 15:22:00,
2013-04-23 11:27:00,68.7,29.3,29.15,SW,229,3.8,6.0,23,0.00,,,0.00,WUHU216WMR100,2013-04-23 15:27:00,
2013-04-23 11:32:00,69.8,29.1,29.15,SSE,157,2.5,6.0,22,0.00,,,0.00,WUHU216WMR100,2013-04-23 15:32:00,
2013-04-23 11:37:00,71.2,30.3,29.15,SE,139,2.2,5.6,22,0.00,,,0.00,WUHU216WMR100,2013-04-23 15:37:00,
2013-04-23 11:42:00,71.1,30.2,29.15,SSW,195,3.7,6.3,22,0.00,,,0.00,WUHU216WMR100,2013-04-23 15:42:00,
2013-04-23 11:47:00,71.1,30.2,29.15,South,177,3.7,8.1,22,0.00,,,0.00,WUHU216WMR100,2013-04-23 15:47:00,
2013-04-23 11:52:00,71.4,30.5,29.12,South,189,3.5,8.1,22,0.00,,,0.00,WUHU216WMR100,2013-04-23 15:52:00,
2013-04-23 11:57:00,72.7,31.6,29.12,SSE,157,2.9,5.6,22,0.00,,,0.00,WUHU216WMR100,2013-04-23 15:57:00,
2013-04-23 12:02:00,72.0,29.9,29.12,SSW,202,4.0,5.6,21,0.00,,,0.00,WUHU216WMR100,2013-04-23 16:02:00,
2013-04-23 12:07:00,72.5,31.4,29.12,ESE,112,2.7,5.4,22,0.00,,,0.00,WUHU216WMR100,2013-04-23 16:07:00,
2013-04-23 12:12:00,71.8,29.7,29.12,SSW,202,4.9,6.3,21,0.00,,,0.00,WUHU216WMR100,2013-04-23 16:12:00,
2013-04-23 12:17:00,73.4,31.0,29.12,SSW,202,2.0,6.3,21,0.00,,,0.00,WUHU216WMR100,2013-04-23 16:17:00,
2013-04-23 12:22:00,73.2,30.9,29.12,SE,135,3.4,6.3,21,0.00,,,0.00,WUHU216WMR100,2013-04-23 16:22:00,
2013-04-23 12:27:00,72.9,30.6,29.12,SSW,194,4.3,5.6,21,0.00,,,0.00,WUHU216WMR100,2013-04-23 16:27:00,
2013-04-23 12:32:00,73.6,31.2,29.12,ESE,112,4.3,6.3,21,0.00,,,0.00,WUHU216WMR100,2013-04-23 16:32:00,
2013-04-23 12:36:00,73.8,31.4,29.12,SSE,157,3.6,6.3,21,0.00,,,0.00,WUHU216WMR100,2013-04-23 16:36:00,
2013-04-23 12:41:00,73.6,27.4,29.12,SSE,150,4.1,8.1,18,0.00,,,0.00,WUHU216WMR100,2013-04-23 16:41:00,
2013-04-23 12:46:00,73.8,31.4,29.12,ESE,112,4.7,8.1,21,0.00,,,0.00,WUHU216WMR100,2013-04-23 16:46:00,
2013-04-23 12:51:00,74.3,31.8,29.09,SE,135,2.5,6.3,21,0.00,,,0.00,WUHU216WMR100,2013-04-23 16:51:00,
2013-04-23 12:56:00,74.1,27.8,29.09,WSW,247,6.5,10.3,18,0.00,,,0.00,WUHU216WMR100,2013-04-23 16:56:00,
2013-04-23 13:02:00,75.2,28.7,29.09,WSW,247,3.6,10.3,18,0.00,,,0.00,WUHU216WMR100,2013-04-23 17:02:00,
2013-04-23 13:07:00,75.6,29.1,29.09,SSW,202,3.1,10.3,18,0.00,,,0.00,WUHU216WMR100,2013-04-23 17:07:00,
2013-04-23 13:12:00,74.8,28.4,29.09,South,184,4.8,8.7,18,0.00,,,0.00,WUHU216WMR100,2013-04-23 17:12:00,
2013-04-23 13:17:00,76.1,29.5,29.09,SSE,157,3.6,9.6,18,0.00,,,0.00,WUHU216WMR100,2013-04-23 17:17:00,
2013-04-23 13:22:00,76.1,29.5,29.09,SSW,213,4.0,10.1,18,0.00,,,0.00,WUHU216WMR100,2013-04-23 17:22:00,
2013-04-23 13:27:00,76.6,29.9,29.09,SSW,198,5.0,10.1,18,0.00,,,0.00,WUHU216WMR100,2013-04-23 17:27:00,
2013-04-23 13:32:00,76.6,29.9,29.09,South,190,3.5,7.8,18,0.00,,,0.00,WUHU216WMR100,2013-04-23 17:32:00,
2013-04-23 13:37:00,76.1,29.5,29.06,West,269,4.8,9.2,18,0.00,,,0.00,WUHU216WMR100,2013-04-23 17:37:00,
2013-04-23 13:42:00,76.8,30.1,29.06,South,180,4.9,9.2,18,0.00,,,0.00,WUHU216WMR100,2013-04-23 17:42:00,
2013-04-23 13:47:00,76.8,30.1,29.06,South,181,4.8,7.6,18,0.00,,,0.00,WUHU216WMR100,2013-04-23 17:47:00,
2013-04-23 13:52:00,76.6,29.9,29.06,SSE,154,5.4,10.3,18,0.00,,,0.00,WUHU216WMR100,2013-04-23 17:52:00,
2013-04-23 13:57:00,75.9,29.3,29.06,SSE,157,5.6,10.3,18,0.00,,,0.00,WUHU216WMR100,2013-04-23 17:57:00,
2013-04-23 14:02:00,75.7,29.2,29.06,SSE,157,6.0,9.6,18,0.00,,,0.00,WUHU216WMR100,2013-04-23 18:02:00,
2013-04-23 14:07:00,76.6,29.9,29.06,SSE,157,4.7,9.6,18,0.00,,,0.00,WUHU216WMR100,2013-04-23 18:07:00,
2013-04-23 14:12:00,76.5,29.8,29.06,WNW,292,6.5,9.8,18,0.00,,,0.00,WUHU216WMR100,2013-04-23 18:12:00,
2013-04-23 14:17:00,76.1,29.5,29.06,South,180,5.3,9.8,18,0.00,,,0.00,WUHU216WMR100,2013-04-23 18:17:00,
2013-04-23 14:22:00,76.3,29.6,29.06,South,180,5.6,8.1,18,0.00,,,0.00,WUHU216WMR100,2013-04-23 18:22:00,
2013-04-23 14:27:00,77.4,30.5,29.06,South,186,3.4,8.1,18,0.00,,,0.00,WUHU216WMR100,2013-04-23 18:27:00,
2013-04-23 14:32:00,77.2,30.4,29.06,SSW,201,5.1,11.9,18,0.00,,,0.00,WUHU216WMR100,2013-04-23 18:32:00,
2013-04-23 14:37:00,79.3,30.7,29.03,SSW,202,2.0,11.9,17,0.00,,,0.00,WUHU216WMR100,2013-04-23 18:37:00,
2013-04-23 14:42:00,77.4,30.5,29.03,SSE,157,5.8,8.1,18,0.00,,,0.00,WUHU216WMR100,2013-04-23 18:42:00,
2013-04-23 14:47:00,78.3,31.3,29.03,ESE,112,3.4,8.1,18,0.00,,,0.00,WUHU216WMR100,2013-04-23 18:47:00,
2013-04-23 14:52:00,78.4,31.4,29.03,WSW,247,3.8,6.5,18,0.00,,,0.00,WUHU216WMR100,2013-04-23 18:52:00,
2013-04-23 14:57:00,76.3,29.6,29.03,SSW,202,8.1,10.3,18,0.00,,,0.00,WUHU216WMR100,2013-04-23 18:57:00,
2013-04-23 15:02:00,77.2,30.4,29.03,SW,215,3.8,10.3,18,0.00,,,0.00,WUHU216WMR100,2013-04-23 19:02:00,
2013-04-23 15:07:00,77.5,30.6,29.03,SSW,202,3.8,11.0,18,0.00,,,0.00,WUHU216WMR100,2013-04-23 19:07:00,
2013-04-23 15:13:00,78.6,31.5,29.03,WSW,249,3.6,8.7,18,0.00,,,0.00,WUHU216WMR100,2013-04-23 19:13:00,
2013-04-23 15:18:00,77.9,30.9,29.03,SSE,157,5.4,7.4,18,0.00,,,0.00,WUHU216WMR100,2013-04-23 19:18:00,
2013-04-23 15:23:00,77.7,30.8,29.03,SW,225,4.5,8.9,18,0.00,,,0.00,WUHU216WMR100,2013-04-23 19:23:00,
2013-04-23 15:28:00,77.9,30.9,29.03,SW,225,4.0,8.9,18,0.00,,,0.00,WUHU216WMR100,2013-04-23 19:28:00,
2013-04-23 15:33:00,77.9,30.9,29.03,SSW,192,4.0,8.7,18,0.00,,,0.00,WUHU216WMR100,2013-04-23 19:33:00,
2013-04-23 15:38:00,78.6,31.5,29.03,WNW,292,4.7,8.7,18,0.00,,,0.00,WUHU216WMR100,2013-04-23 19:38:00,
2013-04-23 15:43:00,77.5,30.6,29.03,SSW,202,7.4,11.0,18,0.00,,,0.00,WUHU216WMR100,2013-04-23 19:43:00,
2013-04-23 15:48:00,77.0,30.2,29.03,WSW,247,5.8,13.2,18,0.00,,,0.00,WUHU216WMR100,2013-04-23 19:48:00,
2013-04-23 15:53:00,77.5,30.6,29.03,SSW,202,4.5,13.2,18,0.00,,,0.00,WUHU216WMR100,2013-04-23 19:53:00,
2013-04-23 15:58:00,77.2,30.4,29.03,WSW,247,6.0,10.7,18,0.00,,,0.00,WUHU216WMR100,2013-04-23 19:58:00,
2013-04-23 16:03:00,77.7,30.8,29.00,SW,223,3.1,12.5,18,0.00,,,0.00,WUHU216WMR100,2013-04-23 20:03:00,
2013-04-23 16:08:00,76.8,30.1,29.00,SW,225,6.0,12.5,18,0.00,,,0.00,WUHU216WMR100,2013-04-23 20:08:00,
2013-04-23 16:13:00,75.9,29.3,29.00,SW,219,5.6,10.7,18,0.00,,,0.00,WUHU216WMR100,2013-04-23 20:13:00,
2013-04-23 16:18:00,76.5,29.8,29.00,SW,230,3.2,10.7,18,0.00,,,0.00,WUHU216WMR100,2013-04-23 20:18:00,
2013-04-23 16:23:00,77.0,30.2,29.00,WSW,247,3.4,5.8,18,0.00,,,0.00,WUHU216WMR100,2013-04-23 20:23:00,
2013-04-23 16:28:00,75.9,29.3,29.00,SSW,202,6.0,10.7,18,0.00,,,0.00,WUHU216WMR100,2013-04-23 20:28:00,
2013-04-23 16:33:00,76.5,29.8,29.00,SSW,202,3.1,10.7,18,0.00,,,0.00,WUHU216WMR100,2013-04-23 20:33:00,
2013-04-23 16:38:00,77.0,30.2,29.00,SSW,202,5.6,7.6,18,0.00,,,0.00,WUHU216WMR100,2013-04-23 20:38:00,
2013-04-23 16:43:00,76.5,29.8,29.00,SW,214,6.0,6.3,18,0.00,,,0.00,WUHU216WMR100,2013-04-23 20:43:00,
2013-04-23 16:48:00,75.9,29.3,29.00,SSW,202,2.9,6.3,18,0.00,,,0.00,WUHU216WMR100,2013-04-23 20:48:00,
2013-04-23 16:53:00,75.6,29.1,29.00,SSW,202,4.3,6.0,18,0.00,,,0.00,WUHU216WMR100,2013-04-23 20:53:00,
2013-04-23 16:58:00,74.5,28.2,29.00,SSW,202,4.3,6.0,18,0.00,,,0.00,WUHU216WMR100,2013-04-23 20:58:00,
2013-04-23 17:03:00,74.5,28.2,29.00,SSW,202,4.3,6.0,18,0.00,,,0.00,WUHU216WMR100,2013-04-23 21:03:00,
2013-04-23 17:08:00,74.1,27.8,29.00,SSW,202,4.3,6.0,18,0.00,,,0.00,WUHU216WMR100,2013-04-23 21:08:00,
2013-04-23 17:13:00,73.4,27.3,29.00,SSW,202,4.3,6.0,18,0.00,,,0.00,WUHU216WMR100,2013-04-23 21:13:00,
2013-04-23 17:19:00,73.2,28.4,29.00,SSW,202,4.3,6.0,19,0.00,,,0.00,WUHU216WMR100,2013-04-23 21:19:00,
2013-04-23 17:24:00,73.0,30.7,29.00,South,180,5.6,6.0,21,0.00,,,0.00,WUHU216WMR100,2013-04-23 21:24:00,
2013-04-23 17:30:00,72.9,30.6,29.00,SSE,157,5.8,6.3,21,0.00,,,0.00,WUHU216WMR100,2013-04-23 21:30:00,
2013-04-23 17:35:00,72.9,30.6,29.00,SSE,157,5.8,6.3,21,0.00,,,0.00,WUHU216WMR100,2013-04-23 21:35:00,
2013-04-23 17:40:00,72.9,30.6,29.00,SSE,157,5.8,5.8,21,0.00,,,0.00,WUHU216WMR100,2013-04-23 21:40:00,
2013-04-23 17:45:00,72.7,30.4,29.00,SSE,157,5.8,5.8,21,0.00,,,0.00,WUHU216WMR100,2013-04-23 21:45:00,
2013-04-23 17:50:00,72.7,30.4,28.97,SSE,157,5.8,5.8,21,0.00,,,0.00,WUHU216WMR100,2013-04-23 21:50:00,
2013-04-23 17:55:00,72.3,30.1,28.97,SSE,157,5.8,5.8,21,0.00,,,0.00,WUHU216WMR100,2013-04-23 21:55:00,
2013-04-23 18:01:00,72.5,30.3,28.97,SSE,157,5.8,5.8,21,0.00,,,0.00,WUHU216WMR100,2013-04-23 22:01:00,
2013-04-23 18:06:00,72.5,30.3,28.97,SSE,157,5.8,5.8,21,0.00,,,0.00,WUHU216WMR100,2013-04-23 22:06:00,
2013-04-23 18:11:00,72.3,30.1,28.97,SSE,159,5.7,5.8,21,0.00,,,0.00,WUHU216WMR100,2013-04-23 22:11:00,
2013-04-23 18:16:00,72.7,31.6,28.97,SSW,202,2.7,5.8,22,0.00,,,0.00,WUHU216WMR100,2013-04-23 22:16:00,
2013-04-23 18:23:00,72.3,30.1,28.97,SSW,202,2.7,2.7,21,0.00,,,0.00,WUHU216WMR100,2013-04-23 22:23:00,
2013-04-23 18:28:00,72.3,31.2,28.97,SSW,202,2.7,2.7,22,0.00,,,0.00,WUHU216WMR100,2013-04-23 22:28:00,
2013-04-23 18:34:00,71.8,29.7,28.97,SSW,202,2.7,2.7,21,0.00,,,0.00,WUHU216WMR100,2013-04-23 22:34:00,
2013-04-23 18:39:00,72.0,31.0,28.97,SSW,202,2.7,2.7,22,0.00,,,0.00,WUHU216WMR100,2013-04-23 22:39:00,
2013-04-23 18:44:00,72.0,31.0,28.97,SSW,202,2.7,2.7,22,0.00,,,0.00,WUHU216WMR100,2013-04-23 22:44:00,
2013-04-23 18:49:00,71.6,30.7,28.97,South,180,3.1,3.8,22,0.00,,,0.00,WUHU216WMR100,2013-04-23 22:49:00,
2013-04-23 18:55:00,71.1,30.2,28.97,South,180,3.1,3.8,22,0.00,,,0.00,WUHU216WMR100,2013-04-23 22:55:00,
2013-04-23 19:00:00,70.9,30.1,28.97,South,180,3.1,3.1,22,0.00,,,0.00,WUHU216WMR100,2013-04-23 23:00:00,
2013-04-23 19:05:00,70.5,29.7,28.97,South,180,3.1,3.1,22,0.00,,,0.00,WUHU216WMR100,2013-04-23 23:05:00,
2013-04-23 19:10:00,70.5,29.7,28.97,South,180,3.1,3.1,22,0.00,,,0.00,WUHU216WMR100,2013-04-23 23:10:00,
2013-04-23 19:15:00,70.5,29.7,28.97,South,180,3.1,3.1,22,0.00,,,0.00,WUHU216WMR100,2013-04-23 23:15:00,
2013-04-23 19:20:00,70.3,29.6,28.97,South,180,3.1,3.1,22,0.00,,,0.00,WUHU216WMR100,2013-04-23 23:20:00,
2013-04-23 19:25:00,70.3,29.6,28.97,South,180,3.1,3.1,22,0.00,,,0.00,WUHU216WMR100,2013-04-23 23:25:00,
2013-04-23 19:30:00,70.2,29.5,28.97,SSW,212,3.0,5.4,22,0.00,,,0.00,WUHU216WMR100,2013-04-23 23:30:00,
2013-04-23 19:35:00,70.0,29.3,28.94,WSW,247,2.9,5.4,22,0.00,,,0.00,WUHU216WMR100,2013-04-23 23:35:00,
2013-04-23 19:40:00,69.6,30.1,28.94,WSW,247,2.9,2.9,23,0.00,,,0.00,WUHU216WMR100,2013-04-23 23:40:00,
2013-04-23 19:45:00,69.4,29.9,28.94,WSW,247,2.9,2.9,23,0.00,,,0.00,WUHU216WMR100,2013-04-23 23:45:00,
2013-04-23 19:50:00,69.1,29.6,28.94,WSW,247,2.9,2.9,23,0.00,,,0.00,WUHU216WMR100,2013-04-23 23:50:00,
2013-04-23 19:55:00,68.9,29.5,28.94,SSW,202,2.3,3.8,23,0.00,,,0.00,WUHU216WMR100,2013-04-23 23:55:00,
2013-04-23 20:00:00,68.5,29.1,28.94,SSW,202,2.5,3.8,23,0.00,,,0.00,WUHU216WMR100,2013-04-24 00:00:00,
2013-04-23 20:05:00,68.0,28.7,28.94,SW,225,1.3,2.9,23,0.00,,,0.00,WUHU216WMR100,2013-04-24 00:05:00,
2013-04-23 20:10:00,67.8,29.6,28.94,SSW,202,2.2,3.4,24,0.00,,,0.00,WUHU216WMR100,2013-04-24 00:10:00,
2013-04-23 20:15:00,67.6,29.4,28.94,SSW,202,0.0,3.4,24,0.00,,,0.00,WUHU216WMR100,2013-04-24 00:15:00,
2013-04-23 20:20:00,67.5,29.3,28.94,SSW,202,1.3,2.2,24,0.00,,,0.00,WUHU216WMR100,2013-04-24 00:20:00,
2013-04-23 20:25:00,67.3,29.1,28.94,SSW,202,1.6,2.2,24,0.00,,,0.00,WUHU216WMR100,2013-04-24 00:25:00,
2013-04-23 20:30:00,67.1,29.0,28.94,SSW,202,0.4,2.2,24,0.00,,,0.00,WUHU216WMR100,2013-04-24 00:30:00,
2013-04-23 20:35:00,67.1,29.0,28.94,SSW,202,2.5,2.9,24,0.00,,,0.00,WUHU216WMR100,2013-04-24 00:35:00,
2013-04-23 20:40:00,66.7,28.6,28.94,SSW,202,1.1,2.9,24,0.00,,,0.00,WUHU216WMR100,2013-04-24 00:40:00,
2013-04-23 20:45:00,66.4,29.4,28.94,SSE,157,1.3,3.1,25,0.00,,,0.00,WUHU216WMR100,2013-04-24 00:45:00,
2013-04-23 20:50:00,66.4,29.4,28.94,South,178,2.3,3.1,25,0.00,,,0.00,WUHU216WMR100,2013-04-24 00:50:00,
2013-04-23 20:55:00,66.2,29.2,28.94,South,180,2.5,3.1,25,0.00,,,0.00,WUHU216WMR100,2013-04-24 00:55:00,
2013-04-23 21:00:00,66.0,30.0,28.94,SSW,202,1.9,3.1,26,0.00,,,0.00,WUHU216WMR100,2013-04-24 01:00:00,
2013-04-23 21:05:00,65.8,29.8,28.94,South,180,1.8,3.1,26,0.00,,,0.00,WUHU216WMR100,2013-04-24 01:05:00,
2013-04-23 21:10:00,65.3,29.4,28.94,South,180,1.3,3.1,26,0.00,,,0.00,WUHU216WMR100,2013-04-24 01:10:00,
2013-04-23 21:15:00,65.1,30.1,28.94,South,180,1.6,2.5,27,0.00,,,0.00,WUHU216WMR100,2013-04-24 01:15:00,
2013-04-23 21:22:00,64.9,29.9,28.94,SSE,167,1.5,2.9,27,0.00,,,0.00,WUHU216WMR100,2013-04-24 01:22:00,
2013-04-23 21:27:00,64.6,29.7,28.94,SSE,157,0.9,2.7,27,0.00,,,0.00,WUHU216WMR100,2013-04-24 01:27:00,
2013-04-23 21:32:00,64.0,30.0,28.94,SSE,157,0.0,2.0,28,0.00,,,0.00,WUHU216WMR100,2013-04-24 01:32:00,
2013-04-23 21:37:00,63.7,29.8,28.94,SSE,157,0.9,1.3,28,0.00,,,0.00,WUHU216WMR100,2013-04-24 01:37:00,
2013-04-23 21:42:00,63.5,29.6,28.94,SSE,157,0.0,1.3,28,0.00,,,0.00,WUHU216WMR100,2013-04-24 01:42:00,
2013-04-23 21:47:00,63.5,29.6,28.94,SSE,157,0.4,1.1,28,0.00,,,0.00,WUHU216WMR100,2013-04-24 01:47:00,
2013-04-23 21:52:00,63.5,30.5,28.94,SSE,157,0.0,1.1,29,0.00,,,0.00,WUHU216WMR100,2013-04-24 01:52:00,
2013-04-23 21:57:00,63.5,30.5,28.94,SSE,157,0.9,1.3,29,0.00,,,0.00,WUHU216WMR100,2013-04-24 01:57:00,
2013-04-23 22:02:00,63.5,31.3,28.94,SSE,157,0.9,2.0,30,0.00,,,0.00,WUHU216WMR100,2013-04-24 02:02:00,
2013-04-23 22:07:00,63.1,31.0,28.94,SSE,157,1.1,2.0,30,0.00,,,0.00,WUHU216WMR100,2013-04-24 02:07:00,
2013-04-23 22:12:00,63.1,31.0,28.94,SSE,157,1.0,2.0,30,0.00,,,0.00,WUHU216WMR100,2013-04-24 02:12:00,
2013-04-23 22:17:00,63.0,31.7,28.94,SSE,157,2.0,2.7,31,0.00,,,0.00,WUHU216WMR100,2013-04-24 02:17:00,
2013-04-23 22:23:00,63.0,31.7,28.94,SSE,157,0.0,2.7,31,0.00,,,0.00,WUHU216WMR100,2013-04-24 02:23:00,
2013-04-23 22:28:00,63.0,31.7,28.94,SSW,202,0.9,2.7,31,0.00,,,0.00,WUHU216WMR100,2013-04-24 02:28:00,
2013-04-23 22:33:00,63.0,31.7,28.94,SSW,202,0.0,2.7,31,0.00,,,0.00,WUHU216WMR100,2013-04-24 02:33:00,
2013-04-23 22:38:00,62.8,31.5,28.94,SSE,157,1.1,2.2,31,0.00,,,0.00,WUHU216WMR100,2013-04-24 02:38:00,
2013-04-23 22:43:00,63.0,31.7,28.94,SSW,202,1.6,2.2,31,0.00,,,0.00,WUHU216WMR100,2013-04-24 02:43:00,
2013-04-23 22:48:00,63.1,31.8,28.94,SSW,202,1.1,2.2,31,0.00,,,0.00,WUHU216WMR100,2013-04-24 02:48:00,
2013-04-23 22:53:00,63.1,31.8,28.94,SSW,202,1.1,2.0,31,0.00,,,0.00,WUHU216WMR100,2013-04-24 02:53:00,
2013-04-23 22:58:00,63.1,31.8,28.94,SSW,202,2.2,2.5,31,0.00,,,0.00,WUHU216WMR100,2013-04-24 02:58:00,
2013-04-23 23:03:00,63.3,31.9,28.94,SSW,202,1.8,2.5,31,0.00,,,0.00,WUHU216WMR100,2013-04-24 03:03:00,
2013-04-23 23:08:00,63.1,31.8,28.94,SSW,202,1.1,2.2,31,0.00,,,0.00,WUHU216WMR100,2013-04-24 03:08:00,
2013-04-23 23:13:00,63.0,31.7,28.94,SSW,202,0.0,1.6,31,0.00,,,0.00,WUHU216WMR100,2013-04-24 03:13:00,
2013-04-23 23:18:00,63.0,31.7,28.91,SSW,202,0.9,2.0,31,0.00,,,0.00,WUHU216WMR100,2013-04-24 03:18:00,
2013-04-23 23:23:00,62.8,31.5,28.91,SSW,202,0.0,2.0,31,0.00,,,0.00,WUHU216WMR100,2013-04-24 03:23:00,
2013-04-23 23:28:00,62.6,32.1,28.91,SSW,202,0.0,1.3,32,0.00,,,0.00,WUHU216WMR100,2013-04-24 03:28:00,
2013-04-23 23:33:00,61.9,31.5,28.91,SSW,202,0.0,1.3,32,0.00,,,0.00,WUHU216WMR100,2013-04-24 03:33:00,
2013-04-23 23:39:00,61.7,31.3,28.91,SSW,202,0.0,0.0,32,0.00,,,0.00,WUHU216WMR100,2013-04-24 03:39:00,
2013-04-23 23:44:00,61.7,32.1,28.91,SSW,202,1.1,1.3,33,0.00,,,0.00,WUHU216WMR100,2013-04-24 03:44:00,
2013-04-23 23:49:00,61.9,33.0,28.91,SSW,202,0.1,1.6,34,0.00,,,0.00,WUHU216WMR100,2013-04-24 03:49:00,
2013-04-23 23:54:00,61.9,33.0,28.91,SSW,202,0.0,1.6,34,0.00,,,0.00,WUHU216WMR100,2013-04-24 03:54:00,
2013-04-23 23:59:00,61.7,32.8,28.91,SSW,202,0.0,0.0,34,0.00,,,0.00,WUHU216WMR100,2013-04-24 03:59:00,